Etusivu
METAR-TAF:

METAR-TAF

Lentoasemat :

Dušanben kansainvälinen lentoasema

Dušanbe, Tadžikistan

Leveyspiiri: 38-33N, Pituuspiiri: 068-47E, korkeus merenpinnasta: 803 m

Tämänhetkinen sää

Tämä raportti tehtiin 20 minuuttia sitten, kello 13.30 UTC
Tuuli 2 kn eri suunnista
Lämpötila 26°C
Kosteus 37%
Ilmanpaine 1014 hPa
Näkyvyys 10 km tai enemmän

METAR: UTDD 241330Z VRB01MPS 9999 NSC 26/10 Q1014 R09/D NOSIG RMK QFE692/0923

Aika: 18:50 (13:50 UTC)

Sääennuste

Tämä raportti tehtiin 1 tunti ja 50 minuuttia sitten, kello 12.00 UTC
Ennuste voimassa 24. päivästä klo 13 UTC - 25. päivään klo 01 UTC
Tuuli 4 kn eri suunnista
Näkyvyys: 6000 m
Muutamia pilviä 6600 ft:n korkeudessa, Cumulonimbus.
Hajanaisia pilviä 15000 ft:n korkeudessa

TAF: UTDD 241200Z 2413/2501 VRB02MPS 6000 FEW066CB SCT150

Säähavainnot ja -ennusteet yli 4000 lentoasemalta (METAR- ja TAF-raportit).

Käytössä olevat sääasemat on merkitty karttaan keltaisilla ja punaisilla pisteillä.

Aseta hiiri pisteen päälle nähdäksesi sääaseman nimen.

Klikkaa sitten nähdäksesi säähavainnot ja -ennusteet.

Kartan vaihtaminen: klikkaa mustalla rastilla varustettuja vihreitä pisteitä, niin voit zoomata sisään; viivalla varustettua vihreää pistettä, niin voit zoomata ulos tai vihreitä nuolia, niin pääset viereisille kartoille.


METAR-TAF: